Mountain Home, AR

8:40 PM CDT on August 02, 2015 (GMT -0500)
Amateur Radio W7NMD | | Change Station
CLOSE
Current Station
Personal Weather Station
Location: Mountain Home, AR
Elevation: 940 ft
Nearby Weather Stations

Elev 940 ft 36.35 °N, 92.40 °W | Updated 12 seconds ago

Partly Cloudy
Partly Cloudy
81.0 °F
Feels Like 85 °F
N
0.0
Wind Variable Wind from SE
Gusts 0.0 mph

Today
High -- | Low -- °F
--% Chance of Precip.
Yesterday
High -- | Low -- °F
Precip. -- in
6:16 AM 8:14 PM
Waning Gibbous, 90% visible
Pressure 29.86 in
Visibility 9.0 miles
Clouds Few 7000 ft
Heat Index 85 °F
Dew Point 72 °F
Humidity 73%
Rainfall 0.00 in
Snow Depth Not available.
UV 0 out of 12
Pollen 7.20 out of 12
Air Quality Not available.
Flu Activity Not available.
METAR KBPK 030053Z AUTO 21003KT 9SM FEW070 27/21 A2990 RMK AO2 SLP112 T02720206

More Conditions Fewer Conditions

Pressure 29.86 in
Visibility 9.0 miles
Clouds Few 7000 ft
Heat Index 85 °F
Dew Point 72 °F
Humidity 73%
Rainfall 0.00 in
Snow Depth Not available.
UV 0 out of 12
Pollen 7.20 out of 12
Air Quality Not available.
Flu Activity Not available.
METAR KBPK 030053Z AUTO 21003KT 9SM FEW070 27/21 A2990 RMK AO2 SLP112 T02720206

More Conditions Fewer Conditions

10-Day Weather Forecast

×

Almanac

Astronomy

Aug. 02, 2015 Rise Set
Actual Time
Civil Twilight
Nautical Twilight
Astronomical Twilight
Moon
Length of Visible Light
Length of Day
Tomorrow will be .
, % of the Moon is Illuminated

Today's Extremes

State Highs State Lows

Community

WunderPhotos

Upload Photos

1,843,512 photos uploaded!

WunderBlogs® & News

Nearby

Air Quality

  Air Quality AQ Index Pollutant
Not available.

Snow Depth

Station Depth Elevation

Earthquake Activity

City Distance Mag. Time & Date
Minimum magnitude displayed is 2.5.

Coastal Water Temperatures

Place Temperature

Stations

Nearby Weather Stations

Station Location Temp. Windchill Dew Point Humidity Wind Precip. Elev Updated Type